Time;durP1;ratioP1;P1;durP2;ratioP2;P2;SDS_P1;SDS_P2;PMS_P1;PMS_P2;Temp;Humidity;BMP_temperature;BMP_pressure;BME280_temperature;BME280_humidity;BME280_pressure;Samples;Min_cycle;Max_cycle;Signal;HPM_P1;HPM_P2
2023/04/16 00:01:21;;;;;;;17.65;11.63;;;9.80;99.90;;;;;;5075718;28;20115;-57
2023/04/16 00:03:47;;;;;;;20.05;12.65;;;9.70;99.90;;;;;;5082685;28;20663;-58
2023/04/16 00:06:12;;;;;;;18.40;12.27;;;9.70;99.90;;;;;;5089299;28;20047;-56
2023/04/16 00:08:39;;;;;;;19.23;12.90;;;9.70;99.90;;;;;;5082303;28;20039;-58
2023/04/16 00:11:04;;;;;;;17.65;12.52;;;9.70;99.90;;;;;;5075460;28;20385;-59
2023/04/16 00:13:30;;;;;;;17.67;12.07;;;9.70;99.90;;;;;;5091379;28;20693;-57
2023/04/16 00:15:55;;;;;;;16.50;11.40;;;9.70;99.90;;;;;;5095374;28;20028;-58
2023/04/16 00:18:21;;;;;;;20.67;12.90;;;9.70;99.90;;;;;;5079818;28;20036;-57
2023/04/16 00:20:47;;;;;;;18.15;11.88;;;9.70;99.90;;;;;;5095281;28;20098;-55
2023/04/16 00:23:12;;;;;;;33.38;18.08;;;9.70;99.90;;;;;;5078572;28;20024;-58
2023/04/16 00:25:38;;;;;;;24.83;15.75;;;9.70;99.90;;;;;;5095151;28;20529;-57
2023/04/16 00:28:04;;;;;;;20.52;14.60;;;9.70;99.90;;;;;;5077283;28;20038;-57
2023/04/16 00:30:30;;;;;;;22.20;13.80;;;9.70;99.90;;;;;;5095236;28;20040;-56
2023/04/16 00:32:55;;;;;;;21.20;14.15;;;9.60;99.90;;;;;;5088703;28;20472;-56
2023/04/16 00:35:21;;;;;;;18.35;11.93;;;9.70;99.90;;;;;;5073421;28;20020;-57
2023/04/16 00:37:46;;;;;;;19.58;13.20;;;9.60;99.90;;;;;;5092312;28;20110;-56
2023/04/16 00:40:12;;;;;;;16.92;11.50;;;9.70;99.90;;;;;;5095106;28;20430;-57
2023/04/16 00:42:37;;;;;;;17.70;13.30;;;9.70;99.90;;;;;;5073572;28;20060;-55
2023/04/16 00:45:04;;;;;;;19.67;13.15;;;9.70;99.90;;;;;;5094993;28;20476;-57
2023/04/16 00:47:30;;;;;;;21.42;14.52;;;9.70;99.90;;;;;;5093566;28;20753;-57
2023/04/16 00:49:55;;;;;;;21.38;12.88;;;9.70;99.90;;;;;;5073404;28;20116;-56
2023/04/16 00:52:21;;;;;;;18.30;12.95;;;9.70;99.90;;;;;;5094198;28;20097;-60
2023/04/16 00:54:47;;;;;;;16.73;11.68;;;9.70;99.90;;;;;;5073384;28;20029;-57
2023/04/16 00:57:13;;;;;;;18.23;11.90;;;9.70;99.90;;;;;;5094127;28;20039;-57
2023/04/16 00:59:40;;;;;;;16.42;11.60;;;9.70;99.90;;;;;;5072084;28;20029;-60
2023/04/16 01:02:06;;;;;;;17.88;11.50;;;9.70;99.90;;;;;;5090588;28;20063;-57
2023/04/16 01:04:32;;;;;;;17.23;12.25;;;9.70;99.90;;;;;;5070892;28;20052;-57
2023/04/16 01:06:58;;;;;;;17.50;11.43;;;9.80;99.90;;;;;;5085932;28;20016;-58
2023/04/16 01:09:24;;;;;;;15.45;10.88;;;9.80;99.90;;;;;;5069939;28;20039;-57
2023/04/16 01:11:49;;;;;;;14.77;10.13;;;9.80;99.90;;;;;;5090706;28;20036;-58
2023/04/16 01:14:15;;;;;;;18.75;12.18;;;9.80;99.90;;;;;;5069941;28;20044;-57
2023/04/16 01:16:40;;;;;;;16.60;10.82;;;9.70;99.90;;;;;;5090662;28;20060;-58
2023/04/16 01:19:06;;;;;;;15.00;11.00;;;9.80;99.90;;;;;;5069808;28;20500;-58
2023/04/16 01:21:31;;;;;;;18.40;13.85;;;9.80;99.90;;;;;;5090482;28;20028;-60
2023/04/16 01:24:00;;;;;;;17.63;12.18;;;9.80;99.90;;;;;;5069824;28;20435;-57
2023/04/16 01:26:26;;;;;;;19.98;13.02;;;9.80;99.90;;;;;;5090815;28;20123;-56
2023/04/16 01:28:51;;;;;;;18.10;13.82;;;9.80;99.90;;;;;;5080113;28;20110;-56
2023/04/16 01:31:17;;;;;;;18.80;13.02;;;9.80;99.90;;;;;;5071428;28;20504;-55
2023/04/16 01:33:42;;;;;;;19.58;12.82;;;9.70;99.90;;;;;;5077747;28;20045;-51
2023/04/16 01:36:08;;;;;;;19.98;12.27;;;9.80;99.90;;;;;;5088329;28;20515;-48
2023/04/16 01:38:33;;;;;;;17.33;12.07;;;9.80;99.90;;;;;;5090569;28;20040;-52
2023/04/16 01:40:59;;;;;;;16.00;12.13;;;9.70;99.90;;;;;;5077815;28;20036;-47
2023/04/16 01:43:24;;;;;;;20.83;13.90;;;9.80;99.90;;;;;;5089614;28;20044;-48
2023/04/16 01:45:51;;;;;;;17.30;12.82;;;9.80;99.90;;;;;;5077610;28;20036;-47
2023/04/16 01:48:17;;;;;;;16.92;13.25;;;9.70;99.90;;;;;;5090010;28;20038;-49
2023/04/16 01:50:42;;;;;;;17.55;12.55;;;9.70;99.90;;;;;;5077108;28;20269;-49
2023/04/16 01:53:08;;;;;;;16.20;11.25;;;9.80;99.90;;;;;;5070890;28;20519;-53
2023/04/16 01:55:34;;;;;;;17.90;10.85;;;9.80;99.90;;;;;;5088091;28;20051;-52
2023/04/16 01:57:59;;;;;;;16.65;11.15;;;9.80;99.90;;;;;;5090607;28;20032;-47
2023/04/16 02:00:25;;;;;;;18.17;11.68;;;9.70;99.90;;;;;;5074593;28;20035;-49
2023/04/16 02:02:50;;;;;;;17.80;12.43;;;9.70;99.90;;;;;;5090445;28;20032;-48
2023/04/16 02:05:16;;;;;;;16.05;11.32;;;9.80;99.90;;;;;;5070645;28;20077;-50
2023/04/16 02:07:41;;;;;;;19.60;11.95;;;9.70;99.90;;;;;;5088327;28;20013;-50
2023/04/16 02:10:09;;;;;;;20.45;11.75;;;9.70;99.90;;;;;;5090416;28;20029;-51
2023/04/16 02:12:34;;;;;;;15.10;10.80;;;9.70;99.90;;;;;;5068421;28;20111;-50
2023/04/16 02:15:00;;;;;;;16.95;11.70;;;9.70;99.90;;;;;;5090369;28;20504;-47
2023/04/16 02:17:25;;;;;;;17.75;12.25;;;9.80;99.90;;;;;;5090073;28;20609;-50
2023/04/16 02:19:51;;;;;;;19.83;11.52;;;9.70;99.90;;;;;;5068741;28;20279;-47
2023/04/16 02:22:17;;;;;;;16.90;12.02;;;9.70;99.90;;;;;;5089496;28;20040;-53
2023/04/16 02:24:42;;;;;;;14.60;11.07;;;9.70;99.90;;;;;;5067135;28;20024;-50
2023/04/16 02:27:08;;;;;;;14.25;10.60;;;9.70;99.90;;;;;;5089233;28;20504;-47
2023/04/16 02:29:33;;;;;;;12.25;9.77;;;9.70;99.90;;;;;;5068260;28;20457;-49
2023/04/16 02:31:59;;;;;;;13.55;10.63;;;9.70;99.90;;;;;;5089146;28;20040;-49
2023/04/16 02:34:24;;;;;;;13.80;9.73;;;9.70;99.90;;;;;;5068158;28;20045;-51
2023/04/16 02:36:50;;;;;;;15.40;10.73;;;9.70;99.90;;;;;;5089094;28;20024;-48
2023/04/16 02:39:15;;;;;;;16.85;11.32;;;9.70;99.90;;;;;;5068189;28;20535;-50
2023/04/16 02:41:41;;;;;;;12.30;9.05;;;9.70;99.90;;;;;;5088981;28;20112;-47
2023/04/16 02:44:06;;;;;;;20.67;12.60;;;9.70;99.90;;;;;;5068151;28;20032;-50
2023/04/16 02:46:32;;;;;;;14.32;10.00;;;9.70;99.90;;;;;;5088772;28;20044;-49
2023/04/16 02:48:57;;;;;;;15.27;10.77;;;9.80;99.90;;;;;;5068016;28;20024;-48
2023/04/16 02:51:23;;;;;;;16.33;10.63;;;9.70;99.90;;;;;;5088886;28;20099;-51
2023/04/16 02:53:48;;;;;;;14.70;9.65;;;9.70;99.90;;;;;;5078729;28;20117;-49
2023/04/16 02:56:14;;;;;;;12.25;8.85;;;9.70;99.90;;;;;;5069840;28;20036;-47
2023/04/16 02:58:39;;;;;;;13.52;10.10;;;9.80;99.90;;;;;;5086865;28;20039;-47
2023/04/16 03:01:05;;;;;;;12.43;9.15;;;9.80;99.90;;;;;;5069541;28;20032;-48
2023/04/16 03:03:30;;;;;;;14.98;10.18;;;9.80;99.90;;;;;;5086654;28;20028;-52
2023/04/16 03:05:56;;;;;;;12.88;9.63;;;9.80;99.90;;;;;;5063900;28;20044;-46
2023/04/16 03:08:21;;;;;;;13.35;9.00;;;9.80;99.90;;;;;;5086498;28;20032;-47
2023/04/16 03:10:47;;;;;;;14.35;10.00;;;9.80;99.90;;;;;;5089295;28;20020;-53
2023/04/16 03:13:13;;;;;;;14.60;10.32;;;9.80;99.90;;;;;;5072979;28;20032;-50
2023/04/16 03:15:38;;;;;;;18.70;12.23;;;9.80;99.90;;;;;;5089168;28;20502;-53
2023/04/16 03:18:04;;;;;;;12.35;9.38;;;9.80;99.90;;;;;;5071675;28;20032;-50
2023/04/16 03:20:29;;;;;;;15.07;10.70;;;9.80;99.90;;;;;;5089239;28;20020;-46
2023/04/16 03:22:56;;;;;;;17.77;10.27;;;9.80;99.90;;;;;;5070241;28;20028;-49
2023/04/16 03:25:21;;;;;;;12.75;8.98;;;9.80;99.90;;;;;;5089036;28;20027;-48
2023/04/16 03:27:47;;;;;;;17.85;11.10;;;9.80;99.90;;;;;;5069405;28;20028;-50
2023/04/16 03:30:13;;;;;;;16.02;11.13;;;9.80;99.90;;;;;;5089074;28;20054;-47
2023/04/16 03:32:39;;;;;;;17.67;10.20;;;9.80;99.90;;;;;;5068651;28;20029;-49
2023/04/16 03:35:05;;;;;;;16.92;9.82;;;9.90;99.90;;;;;;5070671;28;20040;-51
2023/04/16 03:37:31;;;;;;;15.48;10.57;;;9.80;99.90;;;;;;5088422;28;20111;-47
2023/04/16 03:39:57;;;;;;;15.35;9.73;;;9.80;99.90;;;;;;5067508;28;20123;-49
2023/04/16 03:42:22;;;;;;;14.63;9.95;;;9.90;99.90;;;;;;5088153;28;20038;-52
2023/04/16 03:44:48;;;;;;;14.00;10.07;;;9.90;99.90;;;;;;5067338;28;20044;-50
2023/04/16 03:47:13;;;;;;;18.77;11.75;;;9.90;99.90;;;;;;5088045;28;20077;-50
2023/04/16 03:49:39;;;;;;;14.82;10.82;;;9.80;99.90;;;;;;5067385;28;20063;-50
2023/04/16 03:52:04;;;;;;;17.05;10.85;;;9.80;99.90;;;;;;5088302;28;20384;-48
2023/04/16 03:54:30;;;;;;;13.27;10.40;;;9.80;99.90;;;;;;5067387;28;20029;-50
2023/04/16 03:56:55;;;;;;;16.15;10.82;;;9.80;99.90;;;;;;5088144;28;20036;-51
2023/04/16 03:59:21;;;;;;;17.10;11.85;;;9.80;99.90;;;;;;5077737;28;20087;-52
2023/04/16 04:01:47;;;;;;;16.70;11.77;;;9.80;99.90;;;;;;5069245;28;20153;-51
2023/04/16 04:04:12;;;;;;;16.02;11.38;;;9.80;99.90;;;;;;5084617;28;20024;-50
2023/04/16 04:06:37;;;;;;;17.92;11.57;;;9.80;99.90;;;;;;5066299;28;20036;-48
2023/04/16 04:09:03;;;;;;;19.67;14.50;;;9.80;99.90;;;;;;5078172;28;20056;-52
2023/04/16 04:11:29;;;;;;;22.80;14.93;;;9.70;99.90;;;;;;5088037;28;20035;-49
2023/04/16 04:13:54;;;;;;;23.45;15.40;;;9.70;99.90;;;;;;5073765;28;20041;-49
2023/04/16 04:16:20;;;;;;;28.02;17.70;;;9.60;99.90;;;;;;5088715;28;20024;-48
2023/04/16 04:18:45;;;;;;;29.15;18.75;;;9.60;99.90;;;;;;5086396;28;20088;-50
2023/04/16 04:21:11;;;;;;;29.55;18.80;;;9.50;99.90;;;;;;5088578;28;20089;-47
2023/04/16 04:23:36;;;;;;;28.45;16.73;;;9.50;99.90;;;;;;5071208;28;20383;-49
2023/04/16 04:26:04;;;;;;;24.48;16.67;;;9.50;99.90;;;;;;5088451;28;20032;-50
2023/04/16 04:28:30;;;;;;;21.73;14.85;;;9.50;99.90;;;;;;5069778;28;20024;-49
2023/04/16 04:30:57;;;;;;;27.20;16.35;;;9.50;99.90;;;;;;5088538;28;20492;-47
2023/04/16 04:33:23;;;;;;;23.38;15.48;;;9.60;99.90;;;;;;5074124;28;20062;-48
2023/04/16 04:35:48;;;;;;;24.65;16.38;;;9.60;99.90;;;;;;5089850;28;20107;-48
2023/04/16 04:38:18;;;;;;;20.00;14.40;;;9.60;99.90;;;;;;5087734;28;20043;-49
2023/04/16 04:40:44;;;;;;;18.70;13.68;;;9.60;99.90;;;;;;5072107;28;20017;-49
2023/04/16 04:43:09;;;;;;;19.83;15.25;;;9.60;99.90;;;;;;5089359;28;20036;-49
2023/04/16 04:45:35;;;;;;;21.90;14.48;;;9.60;99.90;;;;;;5092223;28;20392;-52
2023/04/16 04:48:00;;;;;;;17.92;12.90;;;9.60;99.90;;;;;;5072354;28;20062;-53
2023/04/16 04:50:26;;;;;;;19.77;13.38;;;9.60;99.90;;;;;;5088134;28;20062;-48
2023/04/16 04:52:51;;;;;;;18.83;13.63;;;9.60;99.90;;;;;;5091991;28;20514;-48
2023/04/16 04:55:17;;;;;;;15.27;10.95;;;9.60;99.90;;;;;;5070508;28;20040;-46
2023/04/16 04:57:42;;;;;;;17.70;11.75;;;9.60;99.90;;;;;;5091326;28;20755;-51
2023/04/16 05:00:08;;;;;;;17.70;12.85;;;9.70;99.90;;;;;;5067579;28;20095;-53
2023/04/16 05:02:34;;;;;;;19.08;14.60;;;9.70;99.90;;;;;;5091037;28;20062;-47
2023/04/16 05:04:59;;;;;;;19.00;13.70;;;9.70;99.90;;;;;;5072851;28;20024;-52
2023/04/16 05:07:25;;;;;;;19.25;13.57;;;9.70;99.90;;;;;;5091831;28;20062;-50
2023/04/16 05:09:50;;;;;;;17.50;13.38;;;9.70;99.90;;;;;;5070111;28;20032;-46
2023/04/16 05:12:16;;;;;;;19.45;13.50;;;9.70;99.90;;;;;;5090747;28;20492;-53
2023/04/16 05:14:42;;;;;;;23.25;16.13;;;9.70;99.90;;;;;;5070004;28;20221;-48
2023/04/16 05:17:09;;;;;;;21.58;15.88;;;9.70;99.90;;;;;;5089495;28;20028;-46
2023/04/16 05:19:35;;;;;;;22.70;16.10;;;9.70;99.90;;;;;;5069870;28;20094;-47
2023/04/16 05:22:01;;;;;;;24.23;16.33;;;9.70;99.90;;;;;;5090947;28;20028;-48
2023/04/16 05:24:27;;;;;;;20.20;14.57;;;9.70;99.90;;;;;;5069697;28;20565;-49
2023/04/16 05:26:52;;;;;;;25.17;15.88;;;9.70;99.90;;;;;;5089214;28;20048;-47
2023/04/16 05:29:18;;;;;;;26.23;16.80;;;9.80;99.90;;;;;;5069769;28;20056;-50
2023/04/16 05:31:43;;;;;;;25.33;15.80;;;9.80;99.90;;;;;;5090736;28;20403;-53
2023/04/16 05:34:09;;;;;;;21.23;14.00;;;9.80;99.90;;;;;;5080233;28;20701;-50
2023/04/16 05:36:35;;;;;;;22.17;14.90;;;9.80;99.90;;;;;;5091133;28;20054;-48
2023/04/16 05:39:01;;;;;;;20.50;15.00;;;9.90;99.90;;;;;;5078825;28;20024;-49
2023/04/16 05:41:26;;;;;;;27.30;18.02;;;9.90;99.90;;;;;;5071564;28;20115;-50
2023/04/16 05:43:52;;;;;;;24.90;16.23;;;9.80;99.90;;;;;;5088402;28;20035;-48
2023/04/16 05:46:17;;;;;;;24.38;14.77;;;9.80;99.90;;;;;;5070588;28;20044;-48
2023/04/16 05:48:43;;;;;;;24.48;16.52;;;9.90;99.90;;;;;;5088180;28;20040;-50
2023/04/16 05:51:08;;;;;;;28.35;18.13;;;9.90;99.90;;;;;;5090667;28;20031;-50
2023/04/16 05:53:33;;;;;;;23.85;17.17;;;9.90;99.90;;;;;;5074987;28;20036;-53
2023/04/16 05:55:59;;;;;;;27.77;18.92;;;9.90;99.90;;;;;;5090676;28;20028;-53
2023/04/16 05:58:24;;;;;;;28.90;18.48;;;9.80;99.90;;;;;;5073622;28;20035;-52
2023/04/16 06:00:50;;;;;;;31.23;21.05;;;9.80;99.90;;;;;;5070745;28;20549;-50
2023/04/16 06:03:17;;;;;;;32.88;20.90;;;9.80;99.90;;;;;;5087596;28;20036;-50
2023/04/16 06:05:43;;;;;;;32.35;20.30;;;9.80;99.90;;;;;;5074282;28;20036;-49
2023/04/16 06:08:09;;;;;;;34.35;22.05;;;9.70;99.90;;;;;;5087381;28;20080;-50
2023/04/16 06:10:34;;;;;;;30.83;21.20;;;9.70;99.90;;;;;;5063304;28;20044;-49
2023/04/16 06:13:00;;;;;;;33.78;22.50;;;9.70;99.90;;;;;;5072970;28;20111;-52
2023/04/16 06:15:25;;;;;;;30.10;18.63;;;9.70;99.90;;;;;;5082727;28;20055;-53
2023/04/16 06:17:50;;;;;;;30.80;21.00;;;9.70;99.90;;;;;;5087083;28;20428;-48
2023/04/16 06:20:16;;;;;;;33.60;22.33;;;9.70;99.90;;;;;;5066269;28;20036;-49
2023/04/16 06:22:41;;;;;;;31.95;20.35;;;9.70;99.90;;;;;;5071729;28;20036;-46
2023/04/16 06:25:07;;;;;;;34.33;21.98;;;9.70;99.90;;;;;;5085257;28;20111;-51
2023/04/16 06:27:33;;;;;;;30.67;20.13;;;9.70;99.90;;;;;;5067995;28;20066;-49
2023/04/16 06:29:58;;;;;;;30.45;20.17;;;9.70;99.90;;;;;;5069445;28;20570;-46
2023/04/16 06:32:24;;;;;;;29.42;19.90;;;9.80;99.90;;;;;;5081760;28;20541;-49
2023/04/16 06:34:50;;;;;;;35.35;21.80;;;9.80;99.90;;;;;;5085461;28;20040;-50
2023/04/16 06:37:15;;;;;;;29.42;19.83;;;9.80;99.90;;;;;;5079670;28;20031;-48
2023/04/16 06:39:41;;;;;;;29.73;20.42;;;9.80;99.90;;;;;;5084698;28;20085;-51
2023/04/16 06:42:06;;;;;;;34.17;21.55;;;9.80;99.90;;;;;;5075020;28;20123;-48
2023/04/16 06:44:32;;;;;;;31.05;19.90;;;9.80;99.90;;;;;;5087317;28;20391;-49
2023/04/16 06:46:57;;;;;;;31.90;20.35;;;9.80;99.90;;;;;;5066978;28;20047;-49
2023/04/16 06:49:23;;;;;;;28.05;17.90;;;9.80;99.90;;;;;;5087659;28;20028;-49
2023/04/16 06:51:49;;;;;;;30.40;19.40;;;9.80;99.90;;;;;;5067896;28;20028;-49
2023/04/16 06:54:14;;;;;;;27.27;18.88;;;9.80;99.90;;;;;;5066405;28;20036;-49
2023/04/16 06:56:40;;;;;;;25.98;16.58;;;9.80;99.90;;;;;;5072341;28;20056;-49
2023/04/16 06:59:06;;;;;;;30.83;19.33;;;9.90;99.90;;;;;;5084217;28;20035;-51
2023/04/16 07:01:32;;;;;;;26.75;16.92;;;9.90;99.90;;;;;;5087525;28;20050;-53
2023/04/16 07:03:57;;;;;;;26.45;17.30;;;9.90;99.90;;;;;;5076009;28;20396;-51
2023/04/16 07:06:23;;;;;;;25.88;18.50;;;9.90;99.90;;;;;;5084400;28;20104;-52
2023/04/16 07:08:48;;;;;;;20.13;14.57;;;9.90;99.90;;;;;;5082187;28;20115;-47
2023/04/16 07:11:14;;;;;;;22.20;15.98;;;10.00;99.90;;;;;;5078425;28;20075;-50
2023/04/16 07:13:39;;;;;;;24.55;14.63;;;10.10;99.90;;;;;;5069454;28;20039;-50
2023/04/16 07:16:05;;;;;;;22.60;15.23;;;10.10;99.90;;;;;;5086606;28;20077;-52
2023/04/16 07:18:31;;;;;;;23.92;13.85;;;10.20;99.90;;;;;;5065569;28;20100;-54
2023/04/16 07:20:56;;;;;;;18.15;13.02;;;10.30;99.90;;;;;;5084928;28;20032;-52
2023/04/16 07:23:22;;;;;;;19.55;14.52;;;10.30;99.90;;;;;;5078540;28;20032;-50
2023/04/16 07:25:47;;;;;;;19.00;13.48;;;10.30;99.90;;;;;;5087028;28;20047;-52
2023/04/16 07:28:15;;;;;;;23.75;15.68;;;10.40;99.90;;;;;;5063921;28;20087;-52
2023/04/16 07:30:40;;;;;;;25.33;15.43;;;10.40;99.90;;;;;;5086606;28;20036;-52
2023/04/16 07:33:06;;;;;;;21.35;15.82;;;10.30;99.90;;;;;;5075488;28;20506;-55
2023/04/16 07:35:31;;;;;;;18.52;14.27;;;10.30;99.90;;;;;;5066220;28;20070;-52
2023/04/16 07:37:57;;;;;;;18.60;14.13;;;10.30;99.90;;;;;;5084435;28;20598;-51
2023/04/16 07:40:23;;;;;;;20.35;13.90;;;10.30;99.90;;;;;;5067176;28;20028;-47
2023/04/16 07:42:49;;;;;;;21.55;14.35;;;10.30;99.90;;;;;;5074567;28;20054;-53
2023/04/16 07:45:14;;;;;;;16.77;13.02;;;10.30;99.90;;;;;;5083185;28;20040;-49
2023/04/16 07:47:40;;;;;;;20.25;13.45;;;10.30;99.90;;;;;;5077120;28;20036;-53
2023/04/16 07:50:06;;;;;;;17.65;12.20;;;10.30;99.90;;;;;;5066731;28;20033;-50
2023/04/16 07:52:32;;;;;;;16.75;12.02;;;10.30;99.90;;;;;;5084246;28;20115;-50
2023/04/16 07:54:57;;;;;;;16.38;12.82;;;10.40;99.90;;;;;;5087161;28;20170;-49
2023/04/16 07:57:23;;;;;;;17.08;12.88;;;10.30;99.90;;;;;;5069617;28;20035;-50
2023/04/16 07:59:48;;;;;;;19.60;13.80;;;10.30;99.90;;;;;;5086895;28;20312;-49
2023/04/16 08:02:15;;;;;;;17.10;11.73;;;10.20;99.90;;;;;;5084489;28;20524;-51
2023/04/16 08:04:44;;;;;;;14.93;11.65;;;10.20;99.90;;;;;;5085535;28;20510;-50
2023/04/16 08:07:09;;;;;;;12.50;9.82;;;10.30;99.90;;;;;;5065519;28;20036;-50
2023/04/16 08:09:35;;;;;;;14.90;11.60;;;10.30;99.90;;;;;;5068424;28;20013;-51
2023/04/16 08:12:01;;;;;;;15.00;11.32;;;10.30;99.90;;;;;;5074611;28;20047;-49
2023/04/16 08:14:26;;;;;;;13.23;10.52;;;10.40;99.90;;;;;;5054613;28;20047;-49
2023/04/16 08:16:52;;;;;;;14.25;10.95;;;10.50;99.90;;;;;;5089661;28;20032;-52
2023/04/16 08:19:17;;;;;;;14.98;11.23;;;10.60;99.90;;;;;;5080093;28;20536;-48
2023/04/16 08:21:43;;;;;;;14.23;10.82;;;10.60;99.90;;;;;;5089729;28;20107;-49
2023/04/16 08:24:09;;;;;;;12.65;10.55;;;10.70;99.90;;;;;;5069312;28;20032;-48
2023/04/16 08:26:34;;;;;;;12.63;10.00;;;10.70;99.90;;;;;;5081420;28;20507;-51
2023/04/16 08:29:00;;;;;;;16.20;11.65;;;10.70;99.90;;;;;;5081600;28;20043;-50
2023/04/16 08:31:25;;;;;;;14.07;9.70;;;10.50;99.90;;;;;;5073896;28;20024;-53
2023/04/16 08:33:51;;;;;;;12.60;9.88;;;10.50;99.90;;;;;;5085633;28;20527;-51
2023/04/16 08:36:16;;;;;;;13.20;10.13;;;10.50;99.90;;;;;;5070672;28;20032;-49
2023/04/16 08:38:42;;;;;;;11.45;9.10;;;10.50;99.90;;;;;;5087713;28;20035;-52
2023/04/16 08:41:11;;;;;;;11.77;8.90;;;10.40;99.90;;;;;;5070713;28;20497;-51
2023/04/16 08:43:38;;;;;;;10.18;8.82;;;10.30;99.90;;;;;;5079101;28;20032;-49
2023/04/16 08:46:04;;;;;;;12.77;9.15;;;10.30;99.90;;;;;;5079960;28;20127;-51
2023/04/16 08:48:33;;;;;;;11.32;8.15;;;10.30;99.90;;;;;;5087664;28;20047;-52
2023/04/16 08:51:00;;;;;;;11.15;8.40;;;10.30;99.90;;;;;;5070047;28;20036;-48
2023/04/16 08:53:41;;;;;;;9.35;7.28;;;10.30;99.90;;;;;;5075959;28;20115;-49
2023/04/16 08:56:10;;;;;;;10.30;7.45;;;10.50;99.90;;;;;;5051088;28;20140;-52
2023/04/16 08:58:37;;;;;;;8.30;7.40;;;10.70;99.90;;;;;;5087448;28;20032;-50
2023/04/16 09:01:03;;;;;;;10.07;7.47;;;10.90;99.90;;;;;;5069984;28;20115;-51
2023/04/16 09:03:31;;;;;;;8.55;6.82;;;11.00;99.90;;;;;;5079129;28;20028;-52
2023/04/16 09:05:58;;;;;;;6.30;5.53;;;11.10;99.90;;;;;;5068626;28;20028;-51
2023/04/16 09:08:25;;;;;;;6.18;4.95;;;11.30;99.90;;;;;;5090455;28;20074;-53
2023/04/16 09:10:51;;;;;;;9.63;6.82;;;11.50;99.90;;;;;;5068117;28;20466;-49
2023/04/16 09:13:19;;;;;;;6.97;5.25;;;11.50;99.90;;;;;;5070361;28;20119;-51
2023/04/16 09:15:45;;;;;;;7.00;5.72;;;11.50;99.90;;;;;;5088815;28;20452;-50
2023/04/16 09:18:11;;;;;;;8.25;6.15;;;11.40;99.90;;;;;;5089415;28;20066;-53
2023/04/16 09:20:37;;;;;;;6.68;5.20;;;11.30;99.90;;;;;;5068940;28;20673;-53
2023/04/16 09:23:03;;;;;;;7.55;5.63;;;11.40;99.90;;;;;;5088218;28;20134;-51
2023/04/16 09:25:33;;;;;;;5.93;5.10;;;11.30;99.90;;;;;;5069159;28;20078;-53
2023/04/16 09:27:59;;;;;;;6.20;4.72;;;11.30;99.90;;;;;;5050626;28;20039;-48
2023/04/16 09:30:26;;;;;;;4.65;4.10;;;11.30;99.90;;;;;;5081269;28;20107;-49
2023/04/16 09:33:12;;;;;;;4.75;3.78;;;11.50;99.90;;;;;;5073361;28;20041;-52
2023/04/16 09:35:51;;;;;;;3.92;3.30;;;11.60;99.90;;;;;;5074992;28;20032;-50
2023/04/16 09:38:18;;;;;;;3.30;3.00;;;11.80;99.90;;;;;;5089843;28;20032;-51
2023/04/16 09:40:44;;;;;;;5.30;3.38;;;12.00;99.90;;;;;;5068733;28;20383;-52
2023/04/16 09:43:17;;;;;;;3.33;2.97;;;12.30;99.90;;;;;;5089499;28;20104;-52
2023/04/16 09:45:53;;;;;;;3.80;3.35;;;12.30;99.90;;;;;;5068456;28;20028;-49
2023/04/16 09:48:31;;;;;;;2.90;2.70;;;12.30;99.90;;;;;;5090010;28;20046;-51
2023/04/16 09:50:58;;;;;;;4.07;3.35;;;12.40;99.90;;;;;;5066826;28;20128;-50
2023/04/16 09:53:25;;;;;;;3.00;2.70;;;12.40;99.90;;;;;;5089647;28;20024;-51
2023/04/16 09:56:01;;;;;;;3.40;2.58;;;12.30;99.90;;;;;;5068546;28;20547;-49
2023/04/16 09:58:27;;;;;;;;;;;12.50;99.90;;;;;;5050097;28;20041;-50
2023/04/16 10:01:00;;;;;;;3.05;1.75;;;12.40;99.90;;;;;;5086570;28;19952;-51
2023/04/16 10:03:33;;;;;;;3.08;2.33;;;12.40;99.90;;;;;;5089933;28;20077;-48
2023/04/16 10:06:00;;;;;;;4.45;2.30;;;12.40;99.90;;;;;;5074116;28;20040;-51
2023/04/16 10:08:27;;;;;;;3.08;2.20;;;12.20;99.90;;;;;;5069778;28;20117;-52
2023/04/16 10:10:54;;;;;;;3.47;2.10;;;12.00;99.90;;;;;;5087491;28;20515;-52
2023/04/16 10:13:20;;;;;;;2.78;2.20;;;12.00;99.90;;;;;;5089678;28;20047;-51
2023/04/16 10:15:46;;;;;;;2.95;2.30;;;12.10;99.90;;;;;;5068142;28;20706;-50
2023/04/16 10:18:13;;;;;;;2.28;1.95;;;12.20;99.90;;;;;;5088893;28;20031;-49
2023/04/16 10:20:39;;;;;;;3.28;2.13;;;12.50;99.90;;;;;;5067811;28;20395;-52
2023/04/16 10:23:05;;;;;;;2.15;1.90;;;12.70;99.90;;;;;;5088794;28;20032;-54
2023/04/16 10:25:31;;;;;;;1.88;1.70;;;12.90;99.90;;;;;;5067768;28;20036;-52
2023/04/16 10:27:58;;;;;;;2.10;1.90;;;12.90;99.90;;;;;;5087550;28;20020;-52
2023/04/16 10:30:26;;;;;;;2.38;1.83;;;12.90;99.90;;;;;;5065899;28;20170;-51
2023/04/16 10:32:52;;;;;;;2.40;1.88;;;13.00;99.90;;;;;;5085236;28;20044;-53
2023/04/16 10:35:20;;;;;;;3.78;1.75;;;12.90;99.90;;;;;;5077855;28;20395;-52
2023/04/16 10:37:46;;;;;;;2.72;2.20;;;13.10;99.90;;;;;;5089110;28;20030;-52
2023/04/16 10:40:22;;;;;;;2.15;1.95;;;13.40;99.90;;;;;;5067136;28;20395;-50
2023/04/16 10:42:58;;;;;;;2.33;1.90;;;13.40;99.90;;;;;;5088811;28;20036;-49
2023/04/16 10:45:30;;;;;;;;;;;13.60;99.90;;;;;;5067710;28;20083;-52
2023/04/16 10:47:57;;;;;;;1.45;1.35;;;13.70;99.90;;;;;;5089008;28;19915;-49
2023/04/16 10:50:22;;;;;;;2.20;2.00;;;13.80;99.90;;;;;;5067295;28;20112;-50
2023/04/16 10:52:48;;;;;;;2.15;1.95;;;13.80;99.90;;;;;;5087071;28;20444;-52
2023/04/16 10:55:16;;;;;;;4.05;2.20;;;13.60;99.90;;;;;;5077660;28;20028;-50
2023/04/16 10:57:41;;;;;;;2.17;1.60;;;13.60;99.90;;;;;;5088752;28;20036;-50
2023/04/16 11:00:25;;;;;;;2.05;1.85;;;13.70;99.90;;;;;;5076124;28;20027;-52
2023/04/16 11:02:53;;;;;;;2.30;1.85;;;13.90;99.90;;;;;;5048498;28;20044;-51
2023/04/16 11:05:23;;;;;;;2.58;2.38;;;13.80;99.90;;;;;;5071874;28;20068;-51
2023/04/16 11:07:48;;;;;;;3.42;2.13;;;13.50;99.90;;;;;;5086076;28;20118;-51
2023/04/16 11:10:14;;;;;;;3.08;2.35;;;13.30;99.90;;;;;;5088761;28;20548;-50
2023/04/16 11:12:41;;;;;;;2.92;2.63;;;13.00;99.90;;;;;;5067977;28;20029;-48
2023/04/16 11:15:11;;;;;;;5.03;3.60;;;12.70;99.90;;;;;;5088687;28;20099;-49
2023/04/16 11:17:50;;;;;;;5.05;3.70;;;12.40;99.90;;;;;;5047483;28;20037;-52
2023/04/16 11:20:24;;;;;;;5.30;3.97;;;12.20;99.90;;;;;;5088626;28;20097;-51
2023/04/16 11:22:51;;;;;;;5.70;4.35;;;12.20;99.90;;;;;;5050725;28;20029;-52
2023/04/16 11:25:21;;;;;;;4.38;3.88;;;12.10;99.90;;;;;;5087239;28;20032;-52
2023/04/16 11:27:46;;;;;;;4.78;4.38;;;12.10;99.90;;;;;;5068518;28;20054;-51
2023/04/16 11:30:12;;;;;;;4.70;4.10;;;12.00;99.90;;;;;;5088317;28;20040;-53
2023/04/16 11:32:38;;;;;;;7.07;4.43;;;12.00;99.90;;;;;;5063936;28;20082;-51
2023/04/16 11:35:18;;;;;;;4.82;4.13;;;12.00;99.90;;;;;;5059666;28;20025;-55
2023/04/16 11:37:44;;;;;;;5.13;3.90;;;12.00;99.90;;;;;;5049345;28;20066;-52
2023/04/16 11:40:10;;;;;;;5.88;4.60;;;12.00;99.90;;;;;;5086144;28;20039;-52
2023/04/16 11:42:39;;;;;;;6.20;5.35;;;12.00;99.90;;;;;;5065124;28;20060;-51
2023/04/16 11:45:06;;;;;;;5.63;4.93;;;11.80;99.90;;;;;;5075757;28;20025;-54
2023/04/16 11:47:41;;;;;;;5.28;4.40;;;11.80;99.90;;;;;;5065323;28;20036;-48
2023/04/16 11:50:21;;;;;;;6.18;5.47;;;11.80;99.90;;;;;;5073902;28;20028;-54
2023/04/16 11:52:48;;;;;;;7.78;5.85;;;11.70;99.90;;;;;;5079630;28;20024;-52
2023/04/16 11:55:14;;;;;;;7.90;6.15;;;11.60;99.90;;;;;;5065530;28;20013;-51
2023/04/16 11:57:39;;;;;;;7.10;5.47;;;11.50;99.90;;;;;;5068097;28;21083;-48
2023/04/16 12:00:09;;;;;;;7.72;6.25;;;11.50;99.90;;;;;;5085735;28;20055;-52
2023/04/16 12:02:39;;;;;;;5.90;5.07;;;11.50;99.90;;;;;;5063708;28;20830;-52
2023/04/16 12:05:29;;;;;;;6.40;5.10;;;11.40;99.90;;;;;;5081131;28;20021;-49
2023/04/16 12:07:55;;;;;;;7.40;5.63;;;11.50;99.90;;;;;;5068039;28;20054;-47
2023/04/16 12:10:21;;;;;;;8.02;5.68;;;11.50;99.90;;;;;;5074162;28;20028;-51
2023/04/16 12:12:46;;;;;;;7.63;6.47;;;11.60;99.90;;;;;;5083005;28;20028;-51
2023/04/16 12:15:12;;;;;;;7.53;6.20;;;11.50;99.90;;;;;;5066246;28;20106;-50
2023/04/16 12:17:38;;;;;;;7.75;6.03;;;11.50;99.90;;;;;;5071063;28;20025;-52
2023/04/16 12:20:14;;;;;;;6.40;4.88;;;11.50;99.90;;;;;;5074625;28;20039;-52
2023/04/16 12:22:43;;;;;;;;;;;11.60;99.90;;;;;;5049231;28;20534;-50
2023/04/16 12:25:14;;;;;;;7.57;5.88;;;11.60;99.90;;;;;;5085650;28;19916;-48
2023/04/16 12:27:49;;;;;;;7.72;5.63;;;11.70;99.90;;;;;;5066256;28;20261;-53
2023/04/16 12:30:17;;;;;;;7.30;6.23;;;11.80;99.90;;;;;;5085540;28;20020;-50
2023/04/16 12:32:44;;;;;;;8.18;6.57;;;11.90;99.90;;;;;;5062904;28;20351;-52
2023/04/16 12:35:10;;;;;;;9.57;8.57;;;11.90;99.90;;;;;;5065063;28;20037;-48
2023/04/16 12:37:37;;;;;;;12.82;10.15;;;11.80;99.90;;;;;;5082875;28;20077;-49